createdAt,value
2018-11-02T00:01:41.415Z,100243.81
2018-11-02T00:04:10.295Z,100259.47
2018-11-02T00:06:39.037Z,100274.47
2018-11-02T00:09:08.774Z,100271.54
2018-11-02T00:11:37.662Z,100280.82
2018-11-02T00:14:06.915Z,100281.20
2018-11-02T00:16:37.795Z,100279.02
2018-11-02T00:19:09.636Z,100285.08
2018-11-02T00:21:38.681Z,100297.64
2018-11-02T00:24:08.361Z,100314.00
2018-11-02T00:26:37.263Z,100324.02
2018-11-02T00:29:06.247Z,100323.99
2018-11-02T00:31:36.428Z,100324.27
2018-11-02T00:34:05.315Z,100326.64
2018-11-02T00:36:34.205Z,100319.17
2018-11-02T00:39:03.046Z,100316.61
2018-11-02T00:41:31.852Z,100309.70
2018-11-02T00:44:08.393Z,100323.78
2018-11-02T00:46:37.179Z,100315.91
2018-11-02T00:49:06.737Z,100324.35
2018-11-02T00:51:42.590Z,100323.58
2018-11-02T00:54:11.453Z,100322.97
2018-11-02T00:56:41.297Z,100327.44
2018-11-02T00:59:16.335Z,100328.73
2018-11-02T01:01:48.510Z,100331.53
2018-11-02T01:04:17.360Z,100332.80
2018-11-02T01:06:50.682Z,100331.38
2018-11-02T01:09:25.001Z,100326.77
2018-11-02T01:12:00.876Z,100329.80
2018-11-02T01:14:30.107Z,100334.74
2018-11-02T01:16:59.280Z,100337.20
2018-11-02T01:19:34.423Z,100344.48
2018-11-02T01:22:05.153Z,100343.98
2018-11-02T01:24:34.236Z,100342.48
2018-11-02T01:27:03.197Z,100355.64
2018-11-02T01:29:32.125Z,100352.27
2018-11-02T01:32:00.990Z,100365.63
2018-11-02T01:34:29.781Z,100363.53
2018-11-02T01:36:58.550Z,100368.59
2018-11-02T01:39:27.460Z,100383.52
2018-11-02T01:41:56.355Z,100386.25
2018-11-02T01:44:25.210Z,100381.20
2018-11-02T01:46:54.028Z,100378.30
2018-11-02T01:49:22.914Z,100387.84
2018-11-02T01:51:51.779Z,100401.19
2018-11-02T01:54:20.599Z,100408.34
2018-11-02T01:56:49.396Z,100411.61
2018-11-02T01:59:18.182Z,100415.54
2018-11-02T02:01:46.981Z,100415.08
2018-11-02T02:04:16.480Z,100413.77
2018-11-02T02:06:45.642Z,100410.30
2018-11-02T02:09:15.027Z,100414.34
2018-11-02T02:11:43.855Z,100421.19
2018-11-02T02:14:12.683Z,100422.78
2018-11-02T02:16:41.814Z,100426.33
2018-11-02T02:19:10.729Z,100418.55
2018-11-02T02:21:39.549Z,100416.56
2018-11-02T02:24:16.375Z,100419.20
2018-11-02T02:26:56.596Z,100419.95
2018-11-02T02:29:25.575Z,100418.28
2018-11-02T02:31:54.684Z,100418.39
2018-11-02T02:34:23.529Z,100426.17
2018-11-02T02:36:52.306Z,100419.74
2018-11-02T02:39:21.111Z,100425.41
2018-11-02T02:41:49.910Z,100423.23
2018-11-02T02:44:18.815Z,100427.80
2018-11-02T02:46:48.380Z,100419.55
2018-11-02T02:49:17.310Z,100425.73
2018-11-02T02:51:46.147Z,100437.77
2018-11-02T02:54:15.042Z,100436.45
2018-11-02T02:56:44.027Z,100430.23
2018-11-02T02:59:22.901Z,100434.02
2018-11-02T03:04:53.683Z,100432.16
2018-11-02T03:07:22.625Z,100424.52
2018-11-02T03:09:51.498Z,100420.94
2018-11-02T03:12:20.462Z,100419.93
2018-11-02T03:14:49.272Z,100426.98
2018-11-02T03:17:18.625Z,100433.09
2018-11-02T03:19:49.964Z,100442.09
2018-11-02T03:22:18.868Z,100452.50
2018-11-02T03:24:47.878Z,100447.23
2018-11-02T03:27:37.979Z,100456.11
2018-11-02T03:30:10.263Z,100455.25
2018-11-02T03:32:42.239Z,100459.40
2018-11-02T03:35:14.839Z,100450.75
2018-11-02T03:37:44.623Z,100456.69
2018-11-02T03:40:14.439Z,100458.66
2018-11-02T03:42:57.373Z,100458.87
2018-11-02T03:45:31.528Z,100464.52
2018-11-02T03:48:00.778Z,100466.69
2018-11-02T03:50:29.992Z,100466.03
2018-11-02T03:53:02.561Z,100471.64
2018-11-02T03:55:36.118Z,100475.88
2018-11-02T03:58:18.809Z,100481.38
2018-11-02T04:00:50.383Z,100489.75
2018-11-02T04:03:24.769Z,100495.84
2018-11-02T04:05:54.420Z,100514.98
2018-11-02T04:08:23.229Z,100515.36
2018-11-02T04:10:52.630Z,100516.03
2018-11-02T04:13:21.477Z,100512.09
2018-11-02T04:15:50.356Z,100518.20
2018-11-02T04:18:19.203Z,100529.66
2018-11-02T04:20:48.185Z,100533.95
2018-11-02T04:23:17.302Z,100545.85
2018-11-02T04:25:46.238Z,100545.92
2018-11-02T04:28:15.090Z,100551.83
2018-11-02T04:30:44.023Z,100553.44
2018-11-02T04:33:12.921Z,100546.13
2018-11-02T04:35:41.744Z,100552.15
2018-11-02T04:38:11.243Z,100560.98
2018-11-02T04:40:40.089Z,100565.86
2018-11-02T04:43:08.906Z,100561.27
2018-11-02T04:45:38.642Z,100566.45
2018-11-02T04:48:08.866Z,100569.09
2018-11-02T04:50:38.331Z,100570.77
2018-11-02T04:53:07.247Z,100571.53
2018-11-02T04:55:44.111Z,100583.72
2018-11-02T04:58:13.032Z,100573.05
2018-11-02T05:00:51.331Z,100575.73
2018-11-02T05:03:22.683Z,100585.62
2018-11-02T05:05:52.199Z,100583.91
2018-11-02T05:08:21.063Z,100584.84
2018-11-02T05:10:50.008Z,100582.37
2018-11-02T05:13:25.544Z,100582.95
2018-11-02T05:15:54.624Z,100584.25
2018-11-02T05:18:23.552Z,100590.42
2018-11-02T05:20:56.066Z,100592.47
2018-11-02T05:23:37.247Z,100602.62
2018-11-02T05:26:06.406Z,100588.41
2018-11-02T05:28:35.621Z,100586.88
2018-11-02T05:31:04.556Z,100589.87
2018-11-02T05:33:33.429Z,100590.65
2018-11-02T05:36:02.510Z,100594.68
2018-11-02T05:38:31.617Z,100604.97
2018-11-02T05:41:00.788Z,100610.31
2018-11-02T05:43:35.724Z,100619.63
2018-11-02T05:46:17.462Z,100627.39
2018-11-02T05:48:46.294Z,100633.83
2018-11-02T05:51:15.215Z,100640.20
2018-11-02T05:53:43.996Z,100648.63
2018-11-02T05:56:12.869Z,100648.23
2018-11-02T05:58:41.789Z,100652.02
2018-11-02T06:01:10.954Z,100660.81
2018-11-02T06:03:39.843Z,100665.48
2018-11-02T06:06:08.664Z,100669.97
2018-11-02T06:08:37.671Z,100673.36
2018-11-02T06:11:07.448Z,100677.42
2018-11-02T06:13:36.741Z,100677.38
2018-11-02T06:16:15.655Z,100685.67
2018-11-02T06:18:50.368Z,100692.59
2018-11-02T06:21:19.218Z,100702.74
2018-11-02T06:23:48.089Z,100705.13
2018-11-02T06:26:17.216Z,100711.89
2018-11-02T06:28:46.090Z,100723.39
2018-11-02T06:31:15.150Z,100726.64
2018-11-02T06:33:44.340Z,100728.09
2018-11-02T06:36:13.243Z,100730.77
2018-11-02T06:38:42.163Z,100738.96
2018-11-02T06:41:11.014Z,100741.36
2018-11-02T06:43:39.898Z,100748.58
2018-11-02T06:46:08.783Z,100760.33
2018-11-02T06:48:37.560Z,100761.88
2018-11-02T06:51:06.599Z,100755.73
2018-11-02T06:53:35.308Z,100754.17
2018-11-02T06:56:04.232Z,100751.45
2018-11-02T06:58:33.190Z,100749.63
2018-11-02T07:01:02.158Z,100749.09
2018-11-02T07:03:31.821Z,100746.47
2018-11-02T07:06:01.038Z,100757.95
2018-11-02T07:08:30.976Z,100753.00
2018-11-02T07:10:59.851Z,100765.98
2018-11-02T07:13:28.928Z,100774.49
2018-11-02T07:15:57.784Z,100778.34
2018-11-02T07:18:26.780Z,100779.98
2018-11-02T07:20:56.256Z,100778.38
2018-11-02T07:23:25.207Z,100773.20
2018-11-02T07:25:54.144Z,100789.35
2018-11-02T07:28:23.042Z,100801.33
2018-11-02T07:30:52.027Z,100801.86
2018-11-02T07:33:32.588Z,100801.11
2018-11-02T07:36:01.862Z,100785.02
2018-11-02T07:38:30.670Z,100790.14
2018-11-02T07:40:59.541Z,100793.14
2018-11-02T07:43:28.441Z,100799.09
2018-11-02T07:45:57.364Z,100795.97
2018-11-02T07:48:26.315Z,100801.09
2018-11-02T07:50:55.230Z,100804.03
2018-11-02T07:53:24.122Z,100804.51
2018-11-02T07:55:53.165Z,100811.20
2018-11-02T07:58:22.153Z,100807.61
2018-11-02T08:00:51.247Z,100806.34
2018-11-02T08:03:22.056Z,100814.05
2018-11-02T08:05:52.025Z,100818.25
2018-11-02T08:08:21.009Z,100822.19
2018-11-02T08:10:49.922Z,100824.66
2018-11-02T08:13:18.846Z,100822.93
2018-11-02T08:15:47.743Z,100819.36
2018-11-02T08:18:16.830Z,100836.06
2018-11-02T08:20:45.742Z,100830.61
2018-11-02T08:23:14.579Z,100824.92
2018-11-02T08:25:43.399Z,100824.80
2018-11-02T08:28:12.256Z,100833.05
2018-11-02T08:30:41.152Z,100842.02
2018-11-02T08:33:10.091Z,100831.56
2018-11-02T08:35:38.956Z,100834.96
2018-11-02T08:38:08.044Z,100842.28
2018-11-02T08:40:37.009Z,100852.28
2018-11-02T08:43:09.418Z,100864.65
2018-11-02T08:45:41.624Z,100855.27
2018-11-02T08:48:10.550Z,100860.70
2018-11-02T08:53:26.718Z,100871.00
2018-11-02T08:55:58.690Z,100873.30
2018-11-02T08:58:39.315Z,100871.45
2018-11-02T09:01:20.897Z,100876.86
2018-11-02T09:03:50.228Z,100882.25
2018-11-02T09:06:19.702Z,100882.61
2018-11-02T09:08:50.173Z,100883.48
2018-11-02T09:11:19.472Z,100887.61
2018-11-02T09:13:49.126Z,100887.48
2018-11-02T09:16:20.943Z,100879.29
2018-11-02T09:18:49.912Z,100885.68
2018-11-02T09:21:19.183Z,100892.00
2018-11-02T09:23:48.495Z,100891.00
2018-11-02T09:26:17.936Z,100895.75
2018-11-02T09:29:08.374Z,100885.92
2018-11-02T09:31:37.351Z,100881.55
2018-11-02T09:34:06.776Z,100883.41
2018-11-02T09:36:36.131Z,100885.16
2018-11-02T09:39:09.052Z,100899.83
2018-11-02T09:41:46.529Z,100897.80
2018-11-02T09:44:15.741Z,100892.13
2018-11-02T09:46:44.654Z,100896.28
2018-11-02T09:49:13.551Z,100906.16
2018-11-02T09:51:42.439Z,100909.48
2018-11-02T09:54:15.839Z,100918.96
2018-11-02T09:56:44.860Z,100924.13
2018-11-02T09:59:14.086Z,100921.80
2018-11-02T10:01:43.066Z,100916.43
2018-11-02T10:04:11.866Z,100926.80
2018-11-02T10:06:42.683Z,100937.06
2018-11-02T10:09:21.443Z,100944.00
2018-11-02T10:11:50.342Z,100944.70
2018-11-02T10:14:19.276Z,100927.95
2018-11-02T10:16:48.369Z,100919.69
2018-11-02T10:19:17.500Z,100916.39
2018-11-02T10:22:01.321Z,100919.12
2018-11-02T10:24:30.328Z,100929.91
2018-11-02T10:26:59.233Z,100936.53
2018-11-02T10:29:28.329Z,100939.05
2018-11-02T10:31:57.244Z,100944.16
2018-11-02T10:34:26.122Z,100941.62
2018-11-02T10:36:55.348Z,100938.47
2018-11-02T10:39:24.392Z,100925.28
2018-11-02T10:44:44.964Z,100931.27
2018-11-02T10:47:13.864Z,100934.23
2018-11-02T10:49:43.447Z,100937.52
2018-11-02T10:52:12.420Z,100948.95
2018-11-02T10:54:41.435Z,100944.19
2018-11-02T10:57:16.862Z,100947.42
2018-11-02T10:59:45.683Z,100944.55
2018-11-02T11:02:19.853Z,100940.28
2018-11-02T11:04:48.754Z,100955.91
2018-11-02T11:07:17.736Z,100954.80
2018-11-02T11:09:46.933Z,100952.77
2018-11-02T11:12:15.951Z,100955.91
2018-11-02T11:14:44.673Z,100940.95
2018-11-02T11:17:13.540Z,100941.78
2018-11-02T11:19:42.675Z,100949.34
2018-11-02T11:22:11.748Z,100940.22
2018-11-02T11:24:53.548Z,100938.30
2018-11-02T11:27:22.653Z,100940.58
2018-11-02T11:29:54.691Z,100943.07
2018-11-02T11:32:24.557Z,100945.36
2018-11-02T11:34:53.695Z,100950.62
2018-11-02T11:37:22.582Z,100958.41
2018-11-02T11:39:51.822Z,100947.45
2018-11-02T11:42:22.608Z,100938.09
2018-11-02T11:44:51.602Z,100936.38
2018-11-02T11:47:22.327Z,100941.59
2018-11-02T11:49:58.699Z,100939.59
2018-11-02T11:52:35.438Z,100936.70
2018-11-02T11:55:05.686Z,100934.11
2018-11-02T11:57:36.017Z,100924.68
2018-11-02T12:00:05.514Z,100928.73
2018-11-02T12:02:34.514Z,100926.31
2018-11-02T12:05:03.674Z,100927.94
2018-11-02T12:07:32.598Z,100926.92
2018-11-02T12:10:01.542Z,100935.77
2018-11-02T12:12:30.536Z,100929.25
2018-11-02T12:14:59.536Z,100932.90
2018-11-02T12:17:28.456Z,100928.48
2018-11-02T12:19:57.534Z,100932.98
2018-11-02T12:22:26.639Z,100933.19
2018-11-02T12:24:55.574Z,100940.24
2018-11-02T12:27:25.131Z,100937.92
2018-11-02T12:29:56.864Z,100937.52
2018-11-02T12:32:30.774Z,100936.34
2018-11-02T12:35:01.719Z,100926.12
2018-11-02T12:37:31.220Z,100928.58
2018-11-02T12:40:00.969Z,100924.36
2018-11-02T12:42:31.849Z,100921.58
2018-11-02T12:45:00.832Z,100912.15
2018-11-02T12:47:29.735Z,100920.30
2018-11-02T12:49:58.720Z,100915.40
2018-11-02T12:52:27.575Z,100920.03
2018-11-02T12:54:56.563Z,100931.41
2018-11-02T12:57:25.441Z,100935.41
2018-11-02T12:59:56.706Z,100931.34
2018-11-02T13:02:25.607Z,100933.90
2018-11-02T13:04:54.557Z,100946.56
2018-11-02T13:07:23.347Z,100947.01
2018-11-02T13:09:52.230Z,100948.23
2018-11-02T13:12:33.807Z,100942.29
2018-11-02T13:15:02.919Z,100943.38
2018-11-02T13:17:31.828Z,100946.16
2018-11-02T13:20:00.704Z,100948.33
2018-11-02T13:22:29.516Z,100944.55
2018-11-02T13:24:58.387Z,100942.52
2018-11-02T13:27:27.219Z,100949.55
2018-11-02T13:29:57.988Z,100931.38
2018-11-02T13:32:26.939Z,100940.95
2018-11-02T13:34:55.789Z,100935.91
2018-11-02T13:37:24.681Z,100934.02
2018-11-02T13:39:53.529Z,100940.24
2018-11-02T13:42:22.419Z,100944.95
2018-11-02T13:44:58.133Z,100948.61
2018-11-02T13:47:27.106Z,100949.57
2018-11-02T13:49:56.071Z,100948.76
2018-11-02T13:52:24.972Z,100960.12
2018-11-02T13:54:54.047Z,100955.84
2018-11-02T14:00:19.731Z,100963.48
2018-11-02T14:02:48.704Z,100977.19
2018-11-02T14:05:19.391Z,100975.02
2018-11-02T14:07:48.338Z,100969.74
2018-11-02T14:10:17.565Z,100962.52
2018-11-02T14:12:46.397Z,100967.07
2018-11-02T14:15:16.403Z,100973.00
2018-11-02T14:17:45.761Z,100977.55
2018-11-02T14:20:15.542Z,100985.06
2018-11-02T14:22:44.416Z,100996.28
2018-11-02T14:25:14.562Z,100999.37
2018-11-02T14:27:43.580Z,101003.45
2018-11-02T14:30:14.853Z,101004.09
2018-11-02T14:32:43.977Z,101010.37
2018-11-02T14:35:12.895Z,101007.23
2018-11-02T14:37:41.870Z,101015.41
2018-11-02T14:40:11.570Z,101018.10
2018-11-02T14:42:41.241Z,101021.16
2018-11-02T14:45:12.504Z,101022.33
2018-11-02T14:47:41.428Z,101019.22
2018-11-02T14:50:15.296Z,101020.66
2018-11-02T14:52:48.601Z,101021.44
2018-11-02T14:55:17.548Z,101021.95
2018-11-02T14:57:46.501Z,101032.78
2018-11-02T15:00:15.333Z,101032.84
2018-11-02T15:02:44.297Z,101028.05
2018-11-02T15:05:14.115Z,101018.09
2018-11-02T15:07:43.766Z,101027.30
2018-11-02T15:10:12.772Z,101038.22
2018-11-02T15:12:42.369Z,101045.62
2018-11-02T15:15:12.432Z,101045.88
2018-11-02T15:17:41.444Z,101055.69
2018-11-02T15:20:13.822Z,101054.50
2018-11-02T15:22:43.267Z,101063.56
2018-11-02T15:25:12.145Z,101057.55
2018-11-02T15:27:41.019Z,101056.70
2018-11-02T15:30:13.134Z,101067.22
2018-11-02T15:32:42.880Z,101061.70
2018-11-02T15:35:12.247Z,101066.31
2018-11-02T15:37:42.003Z,101076.84
2018-11-02T15:40:12.120Z,101075.64
2018-11-02T15:42:41.199Z,101068.88
2018-11-02T15:45:12.280Z,101069.27
2018-11-02T15:47:41.201Z,101066.22
2018-11-02T15:50:10.973Z,101077.24
2018-11-02T15:52:47.983Z,101082.44
2018-11-02T15:55:17.229Z,101080.50
2018-11-02T15:57:46.560Z,101074.72
2018-11-02T16:00:19.768Z,101076.42
2018-11-02T16:02:50.022Z,101084.27
2018-11-02T16:05:18.895Z,101082.22
2018-11-02T16:07:47.870Z,101086.21
2018-11-02T16:10:16.735Z,101098.99
2018-11-02T16:12:45.957Z,101112.59
2018-11-02T16:15:15.723Z,101105.70
2018-11-02T16:17:45.354Z,101098.69
2018-11-02T16:20:15.294Z,101109.34
2018-11-02T16:22:44.888Z,101112.86
2018-11-02T16:25:14.221Z,101116.60
2018-11-02T16:27:43.366Z,101121.53
2018-11-02T16:30:29.552Z,101125.61
2018-11-02T16:33:00.657Z,101126.02
2018-11-02T16:35:29.514Z,101134.41
2018-11-02T16:37:58.324Z,101137.89
2018-11-02T16:40:27.207Z,101137.65
2018-11-02T16:42:56.173Z,101134.56
2018-11-02T16:45:25.235Z,101131.44
2018-11-02T16:47:54.097Z,101131.21
2018-11-02T16:50:23.132Z,101125.80
2018-11-02T16:52:52.099Z,101135.55
2018-11-02T16:55:21.094Z,101132.25
2018-11-02T16:57:50.059Z,101140.74
2018-11-02T17:00:19.733Z,101148.13
2018-11-02T17:02:49.755Z,101155.16
2018-11-02T17:05:19.243Z,101155.86
2018-11-02T17:07:48.210Z,101157.23
2018-11-02T17:10:17.568Z,101163.66
2018-11-02T17:12:46.642Z,101162.13
2018-11-02T17:15:15.715Z,101168.36
2018-11-02T17:17:45.092Z,101171.22
2018-11-02T17:20:15.299Z,101183.82
2018-11-02T17:22:44.258Z,101189.05
2018-11-02T17:25:13.825Z,101194.95
2018-11-02T17:27:42.890Z,101198.21
2018-11-02T17:30:14.171Z,101190.56
2018-11-02T17:32:43.398Z,101195.45
2018-11-02T17:35:12.873Z,101201.53
2018-11-02T17:37:41.913Z,101206.07
2018-11-02T17:40:12.545Z,101212.64
2018-11-02T17:42:41.785Z,101220.11
2018-11-02T17:45:10.790Z,101223.34
2018-11-02T17:47:42.431Z,101228.86
2018-11-02T17:50:16.965Z,101235.50
2018-11-02T17:52:46.229Z,101238.36
2018-11-02T17:55:15.153Z,101238.97
2018-11-02T17:57:45.902Z,101254.63
2018-11-02T18:00:15.230Z,101257.99
2018-11-02T18:02:44.325Z,101261.20
2018-11-02T18:05:16.552Z,101261.66
2018-11-02T18:07:51.095Z,101257.89
2018-11-02T18:10:19.994Z,101254.88
2018-11-02T18:12:49.016Z,101270.99
2018-11-02T18:15:17.905Z,101274.69
2018-11-02T18:17:46.742Z,101282.61
2018-11-02T18:20:16.381Z,101281.95
2018-11-02T18:22:45.255Z,101281.53
2018-11-02T18:25:14.173Z,101282.30
2018-11-02T18:27:43.973Z,101292.52
2018-11-02T18:30:13.286Z,101291.36
2018-11-02T18:32:42.102Z,101295.53
2018-11-02T18:35:11.417Z,101302.34
2018-11-02T18:37:40.399Z,101302.91
2018-11-02T18:40:10.996Z,101311.24
2018-11-02T18:42:39.858Z,101316.34
2018-11-02T18:45:11.260Z,101314.30
2018-11-02T18:47:48.385Z,101321.27
2018-11-02T18:50:19.519Z,101334.66
2018-11-02T18:52:49.033Z,101336.74
2018-11-02T18:55:18.783Z,101337.70
2018-11-02T18:57:47.910Z,101328.64
2018-11-02T19:00:17.090Z,101330.69
2018-11-02T19:02:46.123Z,101333.16
2018-11-02T19:05:17.284Z,101337.42
2018-11-02T19:07:46.626Z,101337.31
2018-11-02T19:10:15.536Z,101336.75
2018-11-02T19:12:45.016Z,101340.33
2018-11-02T19:15:15.281Z,101343.38
2018-11-02T19:17:44.165Z,101345.99
2018-11-02T19:20:13.827Z,101343.25
2018-11-02T19:22:43.715Z,101341.20
2018-11-02T19:25:13.734Z,101343.91
2018-11-02T19:27:43.218Z,101337.23
2018-11-02T19:30:13.617Z,101338.35
2018-11-02T19:32:42.606Z,101340.12
2018-11-02T19:35:12.900Z,101346.00
2018-11-02T19:37:42.115Z,101354.10
2018-11-02T19:40:13.180Z,101364.42
2018-11-02T19:42:42.540Z,101370.83
2018-11-02T19:45:14.798Z,101368.28
2018-11-02T19:47:50.196Z,101369.80
2018-11-02T19:50:21.671Z,101370.17
2018-11-02T19:52:51.414Z,101373.92
2018-11-02T19:55:20.934Z,101376.56
2018-11-02T19:57:49.861Z,101384.66
2018-11-02T20:00:18.929Z,101387.30
2018-11-02T20:02:47.909Z,101390.98
2018-11-02T20:05:18.340Z,101394.69
2018-11-02T20:07:47.398Z,101396.03
2018-11-02T20:10:17.945Z,101396.59
2018-11-02T20:12:47.698Z,101391.41
2018-11-02T20:15:17.998Z,101392.70
2018-11-02T20:17:47.124Z,101388.00
2018-11-02T20:20:17.270Z,101394.81
2018-11-02T20:22:46.601Z,101399.53
2018-11-02T20:25:17.436Z,101396.37
2018-11-02T20:27:46.752Z,101395.16
2018-11-02T20:30:17.136Z,101392.91
2018-11-02T20:32:46.276Z,101393.06
2018-11-02T20:35:16.217Z,101392.03
2018-11-02T20:37:45.171Z,101391.54
2018-11-02T20:40:19.008Z,101396.61
2018-11-02T20:42:48.136Z,101404.96
2018-11-02T20:45:18.346Z,101408.06
2018-11-02T20:47:47.282Z,101407.98
2018-11-02T20:50:16.321Z,101414.18
2018-11-02T20:52:45.256Z,101427.88
2018-11-02T20:55:14.825Z,101426.84
2018-11-02T20:57:44.024Z,101429.00
2018-11-02T21:00:16.937Z,101432.33
2018-11-02T21:02:46.096Z,101436.91
2018-11-02T21:05:16.158Z,101439.55
2018-11-02T21:07:45.856Z,101434.52
2018-11-02T21:10:15.927Z,101430.81
2018-11-02T21:12:44.920Z,101447.04
2018-11-02T21:15:15.940Z,101459.99
2018-11-02T21:17:44.828Z,101458.53
2018-11-02T21:20:16.195Z,101459.12
2018-11-02T21:22:49.966Z,101461.86
2018-11-02T21:25:21.633Z,101470.91
2018-11-02T21:27:50.756Z,101474.03
2018-11-02T21:30:22.176Z,101481.16
2018-11-02T21:32:51.765Z,101468.44
2018-11-02T21:35:21.241Z,101467.11
2018-11-02T21:37:59.056Z,101467.34
2018-11-02T21:40:33.052Z,101473.53
2018-11-02T21:43:02.064Z,101461.30
2018-11-02T21:45:32.554Z,101462.89
2018-11-02T21:48:01.642Z,101448.97
2018-11-02T21:50:30.511Z,101446.34
2018-11-02T21:52:59.376Z,101443.19
2018-11-02T21:55:28.331Z,101442.02
2018-11-02T21:57:57.206Z,101444.72
2018-11-02T22:00:26.103Z,101448.44
2018-11-02T22:02:56.059Z,101438.84
2018-11-02T22:05:29.555Z,101451.45
2018-11-02T22:07:58.761Z,101453.52
2018-11-02T22:10:29.696Z,101449.39
2018-11-02T22:13:02.898Z,101456.44
2018-11-02T22:15:32.595Z,101455.06
2018-11-02T22:18:01.678Z,101450.67
2018-11-02T22:20:35.676Z,101451.87
2018-11-02T22:23:06.755Z,101462.69
2018-11-02T22:25:35.928Z,101458.13
2018-11-02T22:28:11.646Z,101456.35
2018-11-02T22:30:41.593Z,101453.22
2018-11-02T22:33:10.489Z,101461.73
2018-11-02T22:35:43.970Z,101464.37
2018-11-02T22:38:12.743Z,101465.14
2018-11-02T22:40:42.262Z,101468.88
2018-11-02T22:43:19.946Z,101468.65
2018-11-02T22:45:59.423Z,101462.95
2018-11-02T22:48:29.236Z,101466.22
2018-11-02T22:51:01.878Z,101468.20
2018-11-02T22:53:33.522Z,101473.67
2018-11-02T22:56:04.433Z,101479.84
2018-11-02T22:58:34.264Z,101487.09
2018-11-02T23:01:08.305Z,101488.02
2018-11-02T23:03:37.196Z,101483.73
2018-11-02T23:06:19.798Z,101483.51
2018-11-02T23:08:48.743Z,101485.23
2018-11-02T23:11:17.742Z,101489.27
2018-11-02T23:13:46.868Z,101494.47
2018-11-02T23:16:15.945Z,101499.91
2018-11-02T23:18:45.264Z,101495.05
2018-11-02T23:21:15.745Z,101489.33
2018-11-02T23:23:44.602Z,101491.19
2018-11-02T23:26:15.937Z,101498.23
2018-11-02T23:28:45.170Z,101491.95
2018-11-02T23:31:14.639Z,101498.61
2018-11-02T23:33:43.507Z,101501.56
2018-11-02T23:36:12.707Z,101503.68
2018-11-02T23:38:42.166Z,101502.42
2018-11-02T23:41:11.185Z,101502.62
2018-11-02T23:43:40.032Z,101509.85
2018-11-02T23:46:10.945Z,101510.71
2018-11-02T23:48:40.080Z,101508.31
2018-11-02T23:51:08.910Z,101508.51
2018-11-02T23:53:37.773Z,101511.92
2018-11-02T23:56:07.777Z,101501.86
2018-11-02T23:58:36.710Z,101498.73
